メインページ
METAR-TAF:

METAR-TAF

空港 :

ヒヒフォ空港

ウォリス, フランス

緯度: 13-14S, 経度: 176-10W, 海抜: 23m

METAR: 見つかりません

時間: 18:52 (06:52 UTC)

予報

当レポートは1時間52分前の05:00(UTC)に作成
予報は15日の 06時(UTC)から 16日の 06時(UTC)まで有効
南東の風 5kt
視程10km以上
高度1500ftの雲は散在している
高度2500ftの千切れ雲あり
15日の 06時(UTC)から 16日の 06時(UTC)まで一時的に
視程: 4500m
高度1200ftの千切れ雲あり
高度1800ftの雲は散在している, 塔状積雲.
にわか雨
確率 40% :
15日の 09時(UTC)から 15日の 16時(UTC)まで一時的に
視程: 2500m
高度1000ftの千切れ雲あり
高度1500ftの雲は散在している, 積乱雲.
にわか雨
確率 30% :
15日の 09時(UTC)から 15日の 16時(UTC)まで一時的に
視程: 1400m
高度1000ftの千切れ雲あり
高度1500ftの雲は散在している, 積乱雲.
激しい雷雨, 雨

TAF: NLWW 150500Z 1506/1606 14005KT 9999 SCT015 BKN025 TEMPO 1506/1606 4500 SHRA BKN012 SCT018TCU PROB40 TEMPO 1509/1516 2500 SHRA BKN010 SCT015CB PROB30 TEMPO 1509/1516 1400 TSRA BKN010 SCT015CB

4,000以上の空港の気象観測と天気予報(METAR報とTAF報)

利用可能な観測所は地図上に黄色い丸と赤い丸で示す。

丸の上にカーソルを重ねると観測所名を参照できる。

次にクリックすると気象観測と天気予報を参照できる。

マップの切り替え:黒色「×」印の緑ボタンをクリックして拡大、「-」印の緑ボタンをクリックして縮小、緑色の三角印をクリックして隣りの地図に切り替え


METAR-TAF: